sensor_id;sensor_type;location;lat;lon;timestamp;temperature;humidity
6824;DHT22;58633;49.470;11.004;2023-04-05T00:00:58;3.40;45.80
6824;DHT22;58633;49.470;11.004;2023-04-05T00:03:24;3.30;45.90
6824;DHT22;58633;49.470;11.004;2023-04-05T00:08:19;3.10;45.90
6824;DHT22;58633;49.470;11.004;2023-04-05T00:10:52;3.60;46.60
6824;DHT22;58633;49.470;11.004;2023-04-05T00:13:18;3.30;46.50
6824;DHT22;58633;49.470;11.004;2023-04-05T00:15:44;3.40;46.60
6824;DHT22;58633;49.470;11.004;2023-04-05T00:18:09;3.10;46.40
6824;DHT22;58633;49.470;11.004;2023-04-05T00:20:47;3.20;46.60
6824;DHT22;58633;49.470;11.004;2023-04-05T00:23:13;3.00;46.90
6824;DHT22;58633;49.470;11.004;2023-04-05T00:25:41;2.80;46.40
6824;DHT22;58633;49.470;11.004;2023-04-05T00:28:07;3.10;46.80
6824;DHT22;58633;49.470;11.004;2023-04-05T00:30:32;3.00;47.20
6824;DHT22;58633;49.470;11.004;2023-04-05T00:32:58;3.20;46.90
6824;DHT22;58633;49.470;11.004;2023-04-05T00:35:26;2.90;46.70
6824;DHT22;58633;49.470;11.004;2023-04-05T00:37:52;3.20;47.30
6824;DHT22;58633;49.470;11.004;2023-04-05T00:40:17;2.70;46.80
6824;DHT22;58633;49.470;11.004;2023-04-05T00:42:43;3.00;47.20
6824;DHT22;58633;49.470;11.004;2023-04-05T00:45:09;2.30;46.60
6824;DHT22;58633;49.470;11.004;2023-04-05T00:47:35;3.10;47.30
6824;DHT22;58633;49.470;11.004;2023-04-05T00:50:01;2.60;47.10
6824;DHT22;58633;49.470;11.004;2023-04-05T00:52:27;3.00;47.30
6824;DHT22;58633;49.470;11.004;2023-04-05T00:54:54;2.00;46.70
6824;DHT22;58633;49.470;11.004;2023-04-05T00:57:21;2.70;47.20
6824;DHT22;58633;49.470;11.004;2023-04-05T00:59:47;2.80;47.60
6824;DHT22;58633;49.470;11.004;2023-04-05T01:02:18;2.70;47.80
6824;DHT22;58633;49.470;11.004;2023-04-05T01:04:54;2.20;47.40
6824;DHT22;58633;49.470;11.004;2023-04-05T01:07:33;2.60;47.80
6824;DHT22;58633;49.470;11.004;2023-04-05T01:10:01;2.50;47.80
6824;DHT22;58633;49.470;11.004;2023-04-05T01:12:31;2.70;48.00
6824;DHT22;58633;49.470;11.004;2023-04-05T01:14:58;3.50;48.90
6824;DHT22;58633;49.470;11.004;2023-04-05T01:17:25;2.10;47.70
6824;DHT22;58633;49.470;11.004;2023-04-05T01:19:58;3.50;48.90
6824;DHT22;58633;49.470;11.004;2023-04-05T01:22:45;2.50;48.10
6824;DHT22;58633;49.470;11.004;2023-04-05T01:25:21;2.10;47.80
6824;DHT22;58633;49.470;11.004;2023-04-05T01:30:43;2.40;48.30
6824;DHT22;58633;49.470;11.004;2023-04-05T01:33:27;2.40;48.40
6824;DHT22;58633;49.470;11.004;2023-04-05T01:36:05;2.10;48.30
6824;DHT22;58633;49.470;11.004;2023-04-05T01:38:35;2.30;48.40
6824;DHT22;58633;49.470;11.004;2023-04-05T01:41:03;2.30;48.40
6824;DHT22;58633;49.470;11.004;2023-04-05T01:43:28;2.40;48.60
6824;DHT22;58633;49.470;11.004;2023-04-05T01:45:54;2.70;48.80
6824;DHT22;58633;49.470;11.004;2023-04-05T01:48:20;2.40;48.60
6824;DHT22;58633;49.470;11.004;2023-04-05T01:50:45;2.00;48.30
6824;DHT22;58633;49.470;11.004;2023-04-05T01:53:11;2.30;48.60
6824;DHT22;58633;49.470;11.004;2023-04-05T01:55:36;2.30;48.60
6824;DHT22;58633;49.470;11.004;2023-04-05T01:58:02;2.40;48.80
6824;DHT22;58633;49.470;11.004;2023-04-05T02:00:27;2.30;48.60
6824;DHT22;58633;49.470;11.004;2023-04-05T02:02:53;2.70;49.00
6824;DHT22;58633;49.470;11.004;2023-04-05T02:05:18;2.20;48.80
6824;DHT22;58633;49.470;11.004;2023-04-05T02:07:44;1.30;48.10
6824;DHT22;58633;49.470;11.004;2023-04-05T02:12:35;2.40;49.20
6824;DHT22;58633;49.470;11.004;2023-04-05T02:15:01;2.50;49.40
6824;DHT22;58633;49.470;11.004;2023-04-05T02:17:27;2.20;49.10
6824;DHT22;58633;49.470;11.004;2023-04-05T02:22:34;2.10;49.20
6824;DHT22;58633;49.470;11.004;2023-04-05T02:25:01;2.20;49.30
6824;DHT22;58633;49.470;11.004;2023-04-05T02:27:28;2.00;49.20
6824;DHT22;58633;49.470;11.004;2023-04-05T02:37:14;2.40;50.00
6824;DHT22;58633;49.470;11.004;2023-04-05T02:39:40;1.90;49.70
6824;DHT22;58633;49.470;11.004;2023-04-05T02:42:06;2.20;50.10
6824;DHT22;58633;49.470;11.004;2023-04-05T02:44:32;2.60;50.30
6824;DHT22;58633;49.470;11.004;2023-04-05T02:46:57;2.00;50.00
6824;DHT22;58633;49.470;11.004;2023-04-05T02:49:23;2.10;50.20
6824;DHT22;58633;49.470;11.004;2023-04-05T02:54:15;2.00;50.20
6824;DHT22;58633;49.470;11.004;2023-04-05T02:59:07;1.50;49.80
6824;DHT22;58633;49.470;11.004;2023-04-05T03:01:32;1.60;50.00
6824;DHT22;58633;49.470;11.004;2023-04-05T03:04:01;1.60;49.90
6824;DHT22;58633;49.470;11.004;2023-04-05T03:06:26;2.20;50.60
6824;DHT22;58633;49.470;11.004;2023-04-05T03:08:52;1.50;50.20
6824;DHT22;58633;49.470;11.004;2023-04-05T03:11:18;2.50;51.00
6824;DHT22;58633;49.470;11.004;2023-04-05T03:13:43;1.80;50.60
6824;DHT22;58633;49.470;11.004;2023-04-05T03:16:09;1.50;50.40
6824;DHT22;58633;49.470;11.004;2023-04-05T03:18:35;2.10;50.90
6824;DHT22;58633;49.470;11.004;2023-04-05T03:23:30;1.30;50.30
6824;DHT22;58633;49.470;11.004;2023-04-05T03:25:59;1.50;50.90
6824;DHT22;58633;49.470;11.004;2023-04-05T03:28:26;1.30;50.70
6824;DHT22;58633;49.470;11.004;2023-04-05T03:33:18;0.90;50.70
6824;DHT22;58633;49.470;11.004;2023-04-05T03:35:45;1.00;50.90
6824;DHT22;58633;49.470;11.004;2023-04-05T03:38:10;1.20;51.10
6824;DHT22;58633;49.470;11.004;2023-04-05T03:45:28;1.00;51.60
6824;DHT22;58633;49.470;11.004;2023-04-05T03:47:57;1.10;51.60
6824;DHT22;58633;49.470;11.004;2023-04-05T03:50:22;1.10;51.80
6824;DHT22;58633;49.470;11.004;2023-04-05T03:52:48;1.20;52.00
6824;DHT22;58633;49.470;11.004;2023-04-05T03:55:14;2.50;53.10
6824;DHT22;58633;49.470;11.004;2023-04-05T03:57:41;1.80;52.70
6824;DHT22;58633;49.470;11.004;2023-04-05T04:00:07;1.50;52.70
6824;DHT22;58633;49.470;11.004;2023-04-05T04:02:46;1.50;52.90
6824;DHT22;58633;49.470;11.004;2023-04-05T04:05:12;0.30;52.20
6824;DHT22;58633;49.470;11.004;2023-04-05T04:07:39;1.20;53.10
6824;DHT22;58633;49.470;11.004;2023-04-05T04:10:06;1.90;53.70
6824;DHT22;58633;49.470;11.004;2023-04-05T04:12:32;1.10;53.20
6824;DHT22;58633;49.470;11.004;2023-04-05T04:14:58;1.00;53.30
6824;DHT22;58633;49.470;11.004;2023-04-05T04:17:32;0.90;53.40
6824;DHT22;58633;49.470;11.004;2023-04-05T04:19:58;0.70;53.20
6824;DHT22;58633;49.470;11.004;2023-04-05T04:25:04;0.50;53.40
6824;DHT22;58633;49.470;11.004;2023-04-05T04:27:30;0.80;53.80
6824;DHT22;58633;49.470;11.004;2023-04-05T04:29:56;1.10;54.10
6824;DHT22;58633;49.470;11.004;2023-04-05T04:32:29;0.10;53.30
6824;DHT22;58633;49.470;11.004;2023-04-05T04:35:14;1.20;54.20
6824;DHT22;58633;49.470;11.004;2023-04-05T04:40:13;0.40;53.50
6824;DHT22;58633;49.470;11.004;2023-04-05T04:42:42;0.60;53.80
6824;DHT22;58633;49.470;11.004;2023-04-05T04:45:11;0.40;53.80
6824;DHT22;58633;49.470;11.004;2023-04-05T04:47:37;1.00;54.20
6824;DHT22;58633;49.470;11.004;2023-04-05T04:50:03;0.70;54.00
6824;DHT22;58633;49.470;11.004;2023-04-05T04:52:29;1.00;54.30
6824;DHT22;58633;49.470;11.004;2023-04-05T04:54:55;1.40;54.60
6824;DHT22;58633;49.470;11.004;2023-04-05T05:02:12;0.60;54.30
6824;DHT22;58633;49.470;11.004;2023-04-05T05:04:38;0.80;54.60
6824;DHT22;58633;49.470;11.004;2023-04-05T05:07:05;0.60;54.50
6824;DHT22;58633;49.470;11.004;2023-04-05T05:09:31;0.30;54.50
6824;DHT22;58633;49.470;11.004;2023-04-05T05:11:57;0.40;54.60
6824;DHT22;58633;49.470;11.004;2023-04-05T05:16:49;0.30;54.80
6824;DHT22;58633;49.470;11.004;2023-04-05T05:19:15;0.70;55.20
6824;DHT22;58633;49.470;11.004;2023-04-05T05:21:40;1.30;55.70
6824;DHT22;58633;49.470;11.004;2023-04-05T05:24:06;0.40;55.00
6824;DHT22;58633;49.470;11.004;2023-04-05T05:26:34;0.60;55.40
6824;DHT22;58633;49.470;11.004;2023-04-05T05:29:00;0.60;55.50
6824;DHT22;58633;49.470;11.004;2023-04-05T05:31:26;0.50;55.40
6824;DHT22;58633;49.470;11.004;2023-04-05T05:33:53;-0.30;54.90
6824;DHT22;58633;49.470;11.004;2023-04-05T05:36:19;0.00;55.20
6824;DHT22;58633;49.470;11.004;2023-04-05T05:38:44;0.40;55.50
6824;DHT22;58633;49.470;11.004;2023-04-05T05:41:10;1.20;56.10
6824;DHT22;58633;49.470;11.004;2023-04-05T05:43:36;0.50;55.90
6824;DHT22;58633;49.470;11.004;2023-04-05T05:48:27;0.60;55.50
6824;DHT22;58633;49.470;11.004;2023-04-05T05:50:53;1.60;56.40
6824;DHT22;58633;49.470;11.004;2023-04-05T05:53:18;0.30;55.40
6824;DHT22;58633;49.470;11.004;2023-04-05T05:55:44;1.10;56.00
6824;DHT22;58633;49.470;11.004;2023-04-05T05:58:10;1.00;55.90
6824;DHT22;58633;49.470;11.004;2023-04-05T06:00:36;0.80;55.70
6824;DHT22;58633;49.470;11.004;2023-04-05T06:03:03;0.70;55.60
6824;DHT22;58633;49.470;11.004;2023-04-05T06:05:28;0.80;55.50
6824;DHT22;58633;49.470;11.004;2023-04-05T06:07:54;1.70;56.30
6824;DHT22;58633;49.470;11.004;2023-04-05T06:10:20;1.30;55.90
6824;DHT22;58633;49.470;11.004;2023-04-05T06:12:46;1.00;55.50
6824;DHT22;58633;49.470;11.004;2023-04-05T06:15:11;1.30;55.60
6824;DHT22;58633;49.470;11.004;2023-04-05T06:17:37;0.30;54.70
6824;DHT22;58633;49.470;11.004;2023-04-05T06:20:07;1.60;55.70
6824;DHT22;58633;49.470;11.004;2023-04-05T06:22:34;1.50;55.00
6824;DHT22;58633;49.470;11.004;2023-04-05T06:25:00;1.30;54.60
6824;DHT22;58633;49.470;11.004;2023-04-05T06:27:26;1.60;54.80
6824;DHT22;58633;49.470;11.004;2023-04-05T06:29:51;2.00;54.90
6824;DHT22;58633;49.470;11.004;2023-04-05T06:34:45;2.30;54.00
6824;DHT22;58633;49.470;11.004;2023-04-05T06:37:13;2.30;53.80
6824;DHT22;58633;49.470;11.004;2023-04-05T06:39:38;2.10;53.40
6824;DHT22;58633;49.470;11.004;2023-04-05T06:42:04;1.50;52.80
6824;DHT22;58633;49.470;11.004;2023-04-05T06:44:29;2.80;53.80
6824;DHT22;58633;49.470;11.004;2023-04-05T06:46:55;3.00;53.70
6824;DHT22;58633;49.470;11.004;2023-04-05T06:49:20;2.60;53.20
6824;DHT22;58633;49.470;11.004;2023-04-05T06:51:46;2.70;53.00
6824;DHT22;58633;49.470;11.004;2023-04-05T06:54:11;3.30;53.20
6824;DHT22;58633;49.470;11.004;2023-04-05T06:56:37;2.90;52.70
6824;DHT22;58633;49.470;11.004;2023-04-05T06:59:03;3.30;52.80
6824;DHT22;58633;49.470;11.004;2023-04-05T07:01:29;3.50;52.70
6824;DHT22;58633;49.470;11.004;2023-04-05T07:03:55;3.10;52.00
6824;DHT22;58633;49.470;11.004;2023-04-05T07:06:20;3.60;52.10
6824;DHT22;58633;49.470;11.004;2023-04-05T07:11:14;3.80;51.90
6824;DHT22;58633;49.470;11.004;2023-04-05T07:13:40;3.50;51.30
6824;DHT22;58633;49.470;11.004;2023-04-05T07:18:32;3.70;51.20
6824;DHT22;58633;49.470;11.004;2023-04-05T07:20:58;3.90;51.10
6824;DHT22;58633;49.470;11.004;2023-04-05T07:23:28;3.80;50.90
6824;DHT22;58633;49.470;11.004;2023-04-05T07:25:59;4.30;51.10
6824;DHT22;58633;49.470;11.004;2023-04-05T07:30:51;3.70;50.40
6824;DHT22;58633;49.470;11.004;2023-04-05T07:35:42;4.40;50.60
6824;DHT22;58633;49.470;11.004;2023-04-05T07:38:08;4.10;50.30
6824;DHT22;58633;49.470;11.004;2023-04-05T07:43:01;4.40;49.80
6824;DHT22;58633;49.470;11.004;2023-04-05T07:45:27;4.40;49.30
6824;DHT22;58633;49.470;11.004;2023-04-05T07:47:52;4.70;49.20
6824;DHT22;58633;49.470;11.004;2023-04-05T07:50:18;4.30;48.50
6824;DHT22;58633;49.470;11.004;2023-04-05T07:55:09;4.30;48.00
6824;DHT22;58633;49.470;11.004;2023-04-05T08:00:02;4.30;47.60
6824;DHT22;58633;49.470;11.004;2023-04-05T08:02:29;4.40;47.30
6824;DHT22;58633;49.470;11.004;2023-04-05T08:04:54;4.20;46.90
6824;DHT22;58633;49.470;11.004;2023-04-05T08:07:21;4.20;46.60
6824;DHT22;58633;49.470;11.004;2023-04-05T08:12:13;4.80;46.70
6824;DHT22;58633;49.470;11.004;2023-04-05T08:14:38;4.40;46.30
6824;DHT22;58633;49.470;11.004;2023-04-05T08:17:04;4.80;46.30
6824;DHT22;58633;49.470;11.004;2023-04-05T08:19:30;4.50;46.00
6824;DHT22;58633;49.470;11.004;2023-04-05T08:21:55;5.10;46.10
6824;DHT22;58633;49.470;11.004;2023-04-05T08:24:21;5.00;45.80
6824;DHT22;58633;49.470;11.004;2023-04-05T08:26:47;5.10;45.60
6824;DHT22;58633;49.470;11.004;2023-04-05T08:29:13;5.10;45.30
6824;DHT22;58633;49.470;11.004;2023-04-05T08:31:38;5.00;44.90
6824;DHT22;58633;49.470;11.004;2023-04-05T08:36:32;5.20;44.80
6824;DHT22;58633;49.470;11.004;2023-04-05T08:38:58;5.50;44.90
6824;DHT22;58633;49.470;11.004;2023-04-05T08:41:25;5.60;44.50
6824;DHT22;58633;49.470;11.004;2023-04-05T08:43:59;6.00;44.50
6824;DHT22;58633;49.470;11.004;2023-04-05T08:46:29;5.90;44.00
6824;DHT22;58633;49.470;11.004;2023-04-05T08:48:56;5.90;43.80
6824;DHT22;58633;49.470;11.004;2023-04-05T08:51:23;6.10;43.80
6824;DHT22;58633;49.470;11.004;2023-04-05T08:53:49;6.10;44.10
6824;DHT22;58633;49.470;11.004;2023-04-05T08:56:19;6.20;43.20
6824;DHT22;58633;49.470;11.004;2023-04-05T08:58:52;6.00;43.00
6824;DHT22;58633;49.470;11.004;2023-04-05T09:01:21;5.90;43.40
6824;DHT22;58633;49.470;11.004;2023-04-05T09:03:48;6.20;42.80
6824;DHT22;58633;49.470;11.004;2023-04-05T09:06:15;6.40;42.50
6824;DHT22;58633;49.470;11.004;2023-04-05T09:08:42;6.40;42.00
6824;DHT22;58633;49.470;11.004;2023-04-05T09:16:00;6.80;41.70
6824;DHT22;58633;49.470;11.004;2023-04-05T09:21:03;7.70;41.70
6824;DHT22;58633;49.470;11.004;2023-04-05T09:23:29;7.30;40.90
6824;DHT22;58633;49.470;11.004;2023-04-05T09:28:20;8.00;40.70
6824;DHT22;58633;49.470;11.004;2023-04-05T09:33:17;8.80;40.40
6824;DHT22;58633;49.470;11.004;2023-04-05T09:35:43;8.80;39.20
6824;DHT22;58633;49.470;11.004;2023-04-05T09:38:09;8.80;38.80
6824;DHT22;58633;49.470;11.004;2023-04-05T09:40:43;8.70;38.80
6824;DHT22;58633;49.470;11.004;2023-04-05T09:43:10;9.10;38.70
6824;DHT22;58633;49.470;11.004;2023-04-05T09:45:40;9.00;38.20
6824;DHT22;58633;49.470;11.004;2023-04-05T09:48:07;9.00;37.90
6824;DHT22;58633;49.470;11.004;2023-04-05T09:50:33;8.90;37.60
6824;DHT22;58633;49.470;11.004;2023-04-05T09:53:11;9.40;37.80
6824;DHT22;58633;49.470;11.004;2023-04-05T09:55:41;9.70;37.90
6824;DHT22;58633;49.470;11.004;2023-04-05T09:58:20;9.50;37.60
6824;DHT22;58633;49.470;11.004;2023-04-05T10:00:51;10.00;36.80
6824;DHT22;58633;49.470;11.004;2023-04-05T10:03:20;10.40;36.50
6824;DHT22;58633;49.470;11.004;2023-04-05T10:05:45;10.40;36.90
6824;DHT22;58633;49.470;11.004;2023-04-05T10:08:13;11.00;36.10
6824;DHT22;58633;49.470;11.004;2023-04-05T10:10:45;11.30;35.80
6824;DHT22;58633;49.470;11.004;2023-04-05T10:13:11;10.80;35.00
6824;DHT22;58633;49.470;11.004;2023-04-05T10:15:38;11.20;34.90
6824;DHT22;58633;49.470;11.004;2023-04-05T10:18:23;11.50;35.10
6824;DHT22;58633;49.470;11.004;2023-04-05T10:20:53;11.30;35.10
6824;DHT22;58633;49.470;11.004;2023-04-05T10:23:23;11.50;34.80
6824;DHT22;58633;49.470;11.004;2023-04-05T10:28:40;11.50;34.00
6824;DHT22;58633;49.470;11.004;2023-04-05T10:31:38;11.70;34.20
6824;DHT22;58633;49.470;11.004;2023-04-05T10:34:38;12.20;34.30
6824;DHT22;58633;49.470;11.004;2023-04-05T10:37:06;12.60;34.20
6824;DHT22;58633;49.470;11.004;2023-04-05T10:39:41;12.40;33.50
6824;DHT22;58633;49.470;11.004;2023-04-05T10:42:20;12.30;33.80
6824;DHT22;58633;49.470;11.004;2023-04-05T10:44:51;12.90;33.00
6824;DHT22;58633;49.470;11.004;2023-04-05T10:47:18;13.00;33.00
6824;DHT22;58633;49.470;11.004;2023-04-05T10:49:48;12.70;32.40
6824;DHT22;58633;49.470;11.004;2023-04-05T10:52:17;13.10;32.40
6824;DHT22;58633;49.470;11.004;2023-04-05T10:54:43;13.20;32.90
6824;DHT22;58633;49.470;11.004;2023-04-05T10:57:09;13.40;32.50
6824;DHT22;58633;49.470;11.004;2023-04-05T10:59:40;13.80;32.20
6824;DHT22;58633;49.470;11.004;2023-04-05T11:02:08;13.80;32.40
6824;DHT22;58633;49.470;11.004;2023-04-05T11:04:34;14.10;32.00
6824;DHT22;58633;49.470;11.004;2023-04-05T11:09:37;14.20;31.40
6824;DHT22;58633;49.470;11.004;2023-04-05T11:12:04;14.40;31.50
6824;DHT22;58633;49.470;11.004;2023-04-05T11:14:36;14.70;31.20
6824;DHT22;58633;49.470;11.004;2023-04-05T11:17:26;14.20;31.40
6824;DHT22;58633;49.470;11.004;2023-04-05T11:20:03;15.10;32.80
6824;DHT22;58633;49.470;11.004;2023-04-05T11:22:30;14.50;32.30
6824;DHT22;58633;49.470;11.004;2023-04-05T11:25:00;14.50;30.80
6824;DHT22;58633;49.470;11.004;2023-04-05T11:27:34;14.30;30.50
6824;DHT22;58633;49.470;11.004;2023-04-05T11:30:03;14.40;30.50
6824;DHT22;58633;49.470;11.004;2023-04-05T11:32:50;14.10;30.00
6824;DHT22;58633;49.470;11.004;2023-04-05T11:35:17;14.60;30.40
6824;DHT22;58633;49.470;11.004;2023-04-05T11:40:30;15.00;30.00
6824;DHT22;58633;49.470;11.004;2023-04-05T11:45:30;15.40;29.60
6824;DHT22;58633;49.470;11.004;2023-04-05T11:47:56;15.80;29.40
6824;DHT22;58633;49.470;11.004;2023-04-05T11:50:24;15.90;29.30
6824;DHT22;58633;49.470;11.004;2023-04-05T11:53:15;15.90;29.20
6824;DHT22;58633;49.470;11.004;2023-04-05T11:55:43;15.80;29.20
6824;DHT22;58633;49.470;11.004;2023-04-05T11:58:15;16.00;29.70
6824;DHT22;58633;49.470;11.004;2023-04-05T12:00:42;15.90;29.90
6824;DHT22;58633;49.470;11.004;2023-04-05T12:03:14;16.40;29.20
6824;DHT22;58633;49.470;11.004;2023-04-05T12:05:53;16.40;29.20
6824;DHT22;58633;49.470;11.004;2023-04-05T12:08:19;16.20;28.80
6824;DHT22;58633;49.470;11.004;2023-04-05T12:10:58;16.40;28.40
6824;DHT22;58633;49.470;11.004;2023-04-05T12:13:28;16.20;28.20
6824;DHT22;58633;49.470;11.004;2023-04-05T12:16:06;15.90;28.20
6824;DHT22;58633;49.470;11.004;2023-04-05T12:18:34;15.90;28.60
6824;DHT22;58633;49.470;11.004;2023-04-05T12:21:18;15.40;28.40
6824;DHT22;58633;49.470;11.004;2023-04-05T12:23:44;15.30;28.50
6824;DHT22;58633;49.470;11.004;2023-04-05T12:26:10;15.20;28.70
6824;DHT22;58633;49.470;11.004;2023-04-05T12:28:55;15.30;28.40
6824;DHT22;58633;49.470;11.004;2023-04-05T12:31:40;15.30;28.30
6824;DHT22;58633;49.470;11.004;2023-04-05T12:34:06;15.50;27.90
6824;DHT22;58633;49.470;11.004;2023-04-05T12:36:32;15.40;28.00
6824;DHT22;58633;49.470;11.004;2023-04-05T12:39:00;15.40;28.10
6824;DHT22;58633;49.470;11.004;2023-04-05T12:41:32;16.00;27.50
6824;DHT22;58633;49.470;11.004;2023-04-05T12:43:59;15.80;27.50
6824;DHT22;58633;49.470;11.004;2023-04-05T12:46:42;15.40;27.60
6824;DHT22;58633;49.470;11.004;2023-04-05T12:49:14;15.70;27.80
6824;DHT22;58633;49.470;11.004;2023-04-05T12:51:41;16.30;28.10
6824;DHT22;58633;49.470;11.004;2023-04-05T12:54:13;17.80;29.30
6824;DHT22;58633;49.470;11.004;2023-04-05T12:56:40;16.90;27.20
6824;DHT22;58633;49.470;11.004;2023-04-05T12:59:06;17.40;27.20
6824;DHT22;58633;49.470;11.004;2023-04-05T13:01:32;18.00;27.10
6824;DHT22;58633;49.470;11.004;2023-04-05T13:03:59;17.70;27.00
6824;DHT22;58633;49.470;11.004;2023-04-05T13:06:29;20.90;28.60
6824;DHT22;58633;49.470;11.004;2023-04-05T13:08:55;18.80;26.50
6824;DHT22;58633;49.470;11.004;2023-04-05T13:11:21;19.20;26.40
6824;DHT22;58633;49.470;11.004;2023-04-05T13:16:13;19.50;25.90
6824;DHT22;58633;49.470;11.004;2023-04-05T13:18:38;19.40;25.90
6824;DHT22;58633;49.470;11.004;2023-04-05T13:21:04;19.70;25.40
6824;DHT22;58633;49.470;11.004;2023-04-05T13:23:33;19.80;25.20
6824;DHT22;58633;49.470;11.004;2023-04-05T13:25:58;19.90;25.10
6824;DHT22;58633;49.470;11.004;2023-04-05T13:28:24;20.60;25.30
6824;DHT22;58633;49.470;11.004;2023-04-05T13:30:50;20.70;25.80
6824;DHT22;58633;49.470;11.004;2023-04-05T13:33:17;22.30;25.50
6824;DHT22;58633;49.470;11.004;2023-04-05T13:35:42;23.40;25.20
6824;DHT22;58633;49.470;11.004;2023-04-05T13:38:08;24.60;24.50
6824;DHT22;58633;49.470;11.004;2023-04-05T13:40:34;25.70;24.10
6824;DHT22;58633;49.470;11.004;2023-04-05T13:42:59;26.80;24.70
6824;DHT22;58633;49.470;11.004;2023-04-05T13:47:52;26.20;23.10
6824;DHT22;58633;49.470;11.004;2023-04-05T13:50:18;26.80;23.10
6824;DHT22;58633;49.470;11.004;2023-04-05T13:52:43;27.00;22.80
6824;DHT22;58633;49.470;11.004;2023-04-05T13:55:09;27.40;23.00
6824;DHT22;58633;49.470;11.004;2023-04-05T13:57:34;27.80;22.60
6824;DHT22;58633;49.470;11.004;2023-04-05T14:00:00;27.80;22.30
6824;DHT22;58633;49.470;11.004;2023-04-05T14:02:26;27.80;22.40
6824;DHT22;58633;49.470;11.004;2023-04-05T14:04:52;25.00;22.70
6824;DHT22;58633;49.470;11.004;2023-04-05T14:07:20;25.00;23.00
6824;DHT22;58633;49.470;11.004;2023-04-05T14:09:46;26.20;23.20
6824;DHT22;58633;49.470;11.004;2023-04-05T14:12:12;26.10;23.20
6824;DHT22;58633;49.470;11.004;2023-04-05T14:14:37;27.20;22.70
6824;DHT22;58633;49.470;11.004;2023-04-05T14:17:03;27.80;22.20
6824;DHT22;58633;49.470;11.004;2023-04-05T14:19:29;28.40;21.80
6824;DHT22;58633;49.470;11.004;2023-04-05T14:21:54;28.20;21.30
6824;DHT22;58633;49.470;11.004;2023-04-05T14:24:20;27.50;21.10
6824;DHT22;58633;49.470;11.004;2023-04-05T14:26:45;27.70;21.80
6824;DHT22;58633;49.470;11.004;2023-04-05T14:29:14;27.90;21.60
6824;DHT22;58633;49.470;11.004;2023-04-05T14:31:40;27.10;21.90
6824;DHT22;58633;49.470;11.004;2023-04-05T14:34:05;29.40;22.70
6824;DHT22;58633;49.470;11.004;2023-04-05T14:36:31;26.80;21.10
6824;DHT22;58633;49.470;11.004;2023-04-05T14:38:57;25.80;21.90
6824;DHT22;58633;49.470;11.004;2023-04-05T14:41:22;24.90;22.10
6824;DHT22;58633;49.470;11.004;2023-04-05T14:43:49;26.40;22.10
6824;DHT22;58633;49.470;11.004;2023-04-05T14:46:14;29.00;21.60
6824;DHT22;58633;49.470;11.004;2023-04-05T14:48:40;30.10;21.80
6824;DHT22;58633;49.470;11.004;2023-04-05T14:51:05;30.10;21.20
6824;DHT22;58633;49.470;11.004;2023-04-05T14:53:31;30.90;21.10
6824;DHT22;58633;49.470;11.004;2023-04-05T14:55:57;31.50;20.90
6824;DHT22;58633;49.470;11.004;2023-04-05T14:58:22;34.00;22.00
6824;DHT22;58633;49.470;11.004;2023-04-05T15:00:49;32.20;20.20
6824;DHT22;58633;49.470;11.004;2023-04-05T15:03:15;33.80;20.80
6824;DHT22;58633;49.470;11.004;2023-04-05T15:05:44;32.50;19.90
6824;DHT22;58633;49.470;11.004;2023-04-05T15:08:10;32.70;20.00
6824;DHT22;58633;49.470;11.004;2023-04-05T15:10:35;32.70;19.80
6824;DHT22;58633;49.470;11.004;2023-04-05T15:13:01;33.10;20.00
6824;DHT22;58633;49.470;11.004;2023-04-05T15:15:27;34.40;20.70
6824;DHT22;58633;49.470;11.004;2023-04-05T15:17:52;33.00;20.20
6824;DHT22;58633;49.470;11.004;2023-04-05T15:20:18;32.90;20.20
6824;DHT22;58633;49.470;11.004;2023-04-05T15:22:43;32.60;20.00
6824;DHT22;58633;49.470;11.004;2023-04-05T15:25:09;32.10;20.20
6824;DHT22;58633;49.470;11.004;2023-04-05T15:27:35;30.80;20.20
6824;DHT22;58633;49.470;11.004;2023-04-05T15:30:02;30.80;20.50
6824;DHT22;58633;49.470;11.004;2023-04-05T15:32:27;30.20;20.40
6824;DHT22;58633;49.470;11.004;2023-04-05T15:37:23;24.50;21.30
6824;DHT22;58633;49.470;11.004;2023-04-05T15:39:49;24.20;21.60
6824;DHT22;58633;49.470;11.004;2023-04-05T15:42:15;24.40;22.00
6824;DHT22;58633;49.470;11.004;2023-04-05T15:44:42;24.80;21.30
6824;DHT22;58633;49.470;11.004;2023-04-05T15:47:08;24.70;21.00
6824;DHT22;58633;49.470;11.004;2023-04-05T15:49:35;24.50;21.10
6824;DHT22;58633;49.470;11.004;2023-04-05T15:52:01;24.00;21.40
6824;DHT22;58633;49.470;11.004;2023-04-05T15:54:26;23.60;21.80
6824;DHT22;58633;49.470;11.004;2023-04-05T15:56:52;23.30;21.70
6824;DHT22;58633;49.470;11.004;2023-04-05T15:59:17;23.00;21.90
6824;DHT22;58633;49.470;11.004;2023-04-05T16:01:43;22.70;22.10
6824;DHT22;58633;49.470;11.004;2023-04-05T16:04:08;22.80;22.60
6824;DHT22;58633;49.470;11.004;2023-04-05T16:06:34;22.40;22.60
6824;DHT22;58633;49.470;11.004;2023-04-05T16:09:00;22.20;22.50
6824;DHT22;58633;49.470;11.004;2023-04-05T16:11:25;21.90;22.40
6824;DHT22;58633;49.470;11.004;2023-04-05T16:13:52;21.60;22.30
6824;DHT22;58633;49.470;11.004;2023-04-05T16:21:10;21.20;22.30
6824;DHT22;58633;49.470;11.004;2023-04-05T16:26:02;20.80;22.50
6824;DHT22;58633;49.470;11.004;2023-04-05T16:28:28;20.50;22.90
6824;DHT22;58633;49.470;11.004;2023-04-05T16:33:20;20.10;23.30
6824;DHT22;58633;49.470;11.004;2023-04-05T16:43:04;18.90;22.40
6824;DHT22;58633;49.470;11.004;2023-04-05T16:47:58;19.00;22.70
6824;DHT22;58633;49.470;11.004;2023-04-05T16:50:23;18.00;22.20
6824;DHT22;58633;49.470;11.004;2023-04-05T17:00:07;17.80;22.60
6824;DHT22;58633;49.470;11.004;2023-04-05T17:09:51;16.40;22.20
6824;DHT22;58633;49.470;11.004;2023-04-05T17:12:16;16.70;22.50
6824;DHT22;58633;49.470;11.004;2023-04-05T17:17:08;16.10;22.60
6824;DHT22;58633;49.470;11.004;2023-04-05T17:19:33;16.10;22.90
6824;DHT22;58633;49.470;11.004;2023-04-05T17:26:51;14.40;22.60
6824;DHT22;58633;49.470;11.004;2023-04-05T17:34:10;14.40;22.90
6824;DHT22;58633;49.470;11.004;2023-04-05T17:36:40;14.20;23.20
6824;DHT22;58633;49.470;11.004;2023-04-05T17:39:05;14.00;23.40
6824;DHT22;58633;49.470;11.004;2023-04-05T17:43:57;13.90;23.80
6824;DHT22;58633;49.470;11.004;2023-04-05T17:46:22;13.80;24.00
6824;DHT22;58633;49.470;11.004;2023-04-05T17:53:40;13.40;24.20
6824;DHT22;58633;49.470;11.004;2023-04-05T17:56:06;12.90;24.10
6824;DHT22;58633;49.470;11.004;2023-04-05T18:03:24;13.20;25.10
6824;DHT22;58633;49.470;11.004;2023-04-05T18:08:17;13.60;25.60
6824;DHT22;58633;49.470;11.004;2023-04-05T18:13:08;12.70;25.00
6824;DHT22;58633;49.470;11.004;2023-04-05T18:15:34;12.40;24.70
6824;DHT22;58633;49.470;11.004;2023-04-05T18:20:25;12.40;25.20
6824;DHT22;58633;49.470;11.004;2023-04-05T18:22:51;12.10;25.20
6824;DHT22;58633;49.470;11.004;2023-04-05T18:27:42;11.50;25.00
6824;DHT22;58633;49.470;11.004;2023-04-05T18:30:09;11.70;25.30
6824;DHT22;58633;49.470;11.004;2023-04-05T18:32:36;11.30;25.20